Time;durP1;ratioP1;P1;durP2;ratioP2;P2;SDS_P1;SDS_P2;PMS_P1;PMS_P2;Temp;Humidity;BMP_temperature;BMP_pressure;BME280_temperature;BME280_humidity;BME280_pressure;Samples;Min_cycle;Max_cycle;Signal;HPM_P1;HPM_P2
2023/01/08 00:00:23;;;;;;;38.55;23.00;;;;;;;4.57;100.00;98798.44;4936307;29;20056;-69
2023/01/08 00:03:28;;;;;;;34.35;21.55;;;;;;;4.49;100.00;98788.38;4934975;29;20055;-71
2023/01/08 00:06:15;;;;;;;33.83;21.23;;;;;;;4.40;100.00;98784.47;4924930;29;20052;-74
2023/01/08 00:09:00;;;;;;;38.42;21.70;;;;;;;4.27;100.00;98778.94;4935002;29;20071;-72
2023/01/08 00:11:45;;;;;;;33.40;20.65;;;;;;;4.21;100.00;98775.78;4935065;29;20048;-72
2023/01/08 00:14:30;;;;;;;33.55;19.42;;;;;;;4.20;100.00;98774.91;4935400;29;20054;-72
2023/01/08 00:17:14;;;;;;;35.85;20.70;;;;;;;4.09;100.00;98761.56;4933741;29;20048;-71
2023/01/08 00:19:59;;;;;;;35.38;21.17;;;;;;;4.11;100.00;98760.59;4934846;29;20051;-72
2023/01/08 00:22:47;;;;;;;35.42;22.00;;;;;;;4.03;100.00;98773.03;4935099;29;20155;-72
2023/01/08 00:25:32;;;;;;;32.75;20.17;;;;;;;4.09;100.00;98758.97;4924489;29;20055;-71
2023/01/08 00:28:19;;;;;;;36.80;22.15;;;;;;;3.99;100.00;98761.94;4933595;29;20392;-72
2023/01/08 00:31:06;;;;;;;36.90;21.92;;;;;;;4.00;100.00;98745.47;4935179;29;20052;-73
2023/01/08 00:33:50;;;;;;;40.97;25.58;;;;;;;4.01;100.00;98746.31;4940218;29;20080;-71
2023/01/08 00:36:35;;;;;;;41.30;25.83;;;;;;;4.04;100.00;98743.59;4934688;29;20415;-71
2023/01/08 00:39:20;;;;;;;41.17;24.55;;;;;;;4.05;100.00;98738.34;4933065;29;20066;-72
2023/01/08 00:42:05;;;;;;;43.17;26.25;;;;;;;4.00;100.00;98736.88;4934750;29;20074;-73
2023/01/08 00:44:50;;;;;;;43.03;25.45;;;;;;;4.03;100.00;98740.16;4909227;29;20139;-71
2023/01/08 00:47:35;;;;;;;46.38;25.63;;;;;;;4.04;100.00;98741.88;4933255;29;20059;-72
2023/01/08 00:50:20;;;;;;;40.58;24.55;;;;;;;4.06;100.00;98741.78;4933971;29;20048;-73
2023/01/08 00:53:05;;;;;;;41.63;25.20;;;;;;;4.16;100.00;98743.06;4937961;29;20087;-73
2023/01/08 00:55:50;;;;;;;45.53;24.27;;;;;;;4.07;100.00;98731.34;4953704;29;20118;-73
2023/01/08 00:58:36;;;;;;;41.53;25.10;;;;;;;4.01;100.00;98723.00;4943290;29;20103;-73
2023/01/08 01:01:20;;;;;;;44.63;25.05;;;;;;;4.03;100.00;98726.38;4953639;29;20066;-72
2023/01/08 01:04:06;;;;;;;45.47;25.95;;;;;;;3.96;100.00;98736.16;4953515;29;20480;-73
2023/01/08 01:06:50;;;;;;;42.95;24.02;;;;;;;4.02;100.00;98742.81;4952933;29;20499;-71
2023/01/08 01:09:36;;;;;;;38.38;24.20;;;;;;;4.16;100.00;98747.44;4948104;29;20105;-70
2023/01/08 01:12:21;;;;;;;43.53;25.88;;;;;;;4.10;100.00;98750.28;4952695;29;20058;-73
2023/01/08 01:15:13;;;;;;;42.90;24.75;;;;;;;4.07;100.00;98749.50;4925727;29;20487;-71
2023/01/08 01:17:57;;;;;;;40.00;24.88;;;;;;;4.04;100.00;98753.97;4953736;29;20106;-73
2023/01/08 01:20:42;;;;;;;44.47;25.63;;;;;;;4.00;100.00;98761.03;4942213;29;20047;-73
2023/01/08 01:23:27;;;;;;;41.97;24.73;;;;;;;4.05;100.00;98753.91;4953086;29;20039;-72
2023/01/08 01:26:19;;;;;;;44.17;24.40;;;;;;;4.10;100.00;98739.91;4954303;29;20114;-72
2023/01/08 01:29:05;;;;;;;41.72;24.38;;;;;;;4.00;100.00;98736.88;4945225;29;20147;-73
2023/01/08 01:31:50;;;;;;;42.67;25.30;;;;;;;4.01;100.00;98734.22;4940238;29;20066;-73
2023/01/08 01:34:34;;;;;;;43.15;26.08;;;;;;;3.90;100.00;98744.19;4938467;29;20053;-73
2023/01/08 01:37:19;;;;;;;42.95;24.90;;;;;;;3.85;100.00;98738.34;4944083;28;20047;-74
2023/01/08 01:40:08;;;;;;;38.42;24.95;;;;;;;3.87;100.00;98744.31;4952208;29;20178;-75
2023/01/08 01:42:52;;;;;;;42.78;24.52;;;;;;;3.85;100.00;98739.19;4939731;29;20558;-73
2023/01/08 01:45:37;;;;;;;39.67;24.10;;;;;;;3.85;100.00;98725.38;4944185;29;20495;-74
2023/01/08 01:48:23;;;;;;;42.50;23.85;;;;;;;3.89;100.00;98724.34;4938415;29;20051;-71
2023/01/08 01:51:08;;;;;;;41.78;25.25;;;;;;;3.85;100.00;98727.97;4921837;29;20131;-71
2023/01/08 01:53:53;;;;;;;38.53;24.00;;;;;;;3.86;100.00;98714.94;4952544;29;20089;-73
2023/01/08 01:56:38;;;;;;;41.72;24.55;;;;;;;3.86;100.00;98711.50;4942167;29;20047;-72
2023/01/08 01:59:23;;;;;;;40.35;24.38;;;;;;;3.79;100.00;98718.69;4952836;29;20456;-72
2023/01/08 02:02:07;;;;;;;41.97;24.98;;;;;;;3.79;100.00;98714.34;4940883;29;20047;-74
2023/01/08 02:04:52;;;;;;;42.30;23.88;;;;;;;3.89;100.00;98707.03;4929734;29;20130;-73
2023/01/08 02:07:50;;;;;;;39.80;24.05;;;;;;;3.96;100.00;98717.16;4941026;29;20106;-71
2023/01/08 02:10:51;;;;;;;36.33;22.42;;;;;;;3.90;100.00;98718.28;4950701;29;20050;-72
2023/01/08 02:13:39;;;;;;;40.75;23.70;;;;;;;3.97;100.00;98724.88;4952344;29;20168;-71
2023/01/08 02:16:31;;;;;;;40.50;24.23;;;;;;;3.89;100.00;98732.97;4951398;29;20058;-70
2023/01/08 02:19:31;;;;;;;43.70;23.88;;;;;;;3.91;100.00;98723.38;4944004;29;20062;-73
2023/01/08 02:22:42;;;;;;;38.80;22.58;;;;;;;3.96;100.00;98718.00;4952541;29;20043;-72
2023/01/08 02:25:36;;;;;;;38.70;22.77;;;;;;;4.06;100.00;98702.91;4941282;29;20078;-72
2023/01/08 02:28:22;;;;;;;37.67;22.90;;;;;;;3.98;100.00;98702.38;4952169;29;20049;-70
2023/01/08 02:31:07;;;;;;;40.40;23.23;;;;;;;3.95;100.00;98708.53;4935586;29;20086;-71
2023/01/08 02:33:51;;;;;;;39.22;24.33;;;;;;;3.99;100.00;98706.66;4952498;29;20083;-71
2023/01/08 02:36:45;;;;;;;40.28;24.08;;;;;;;4.02;100.00;98709.97;4940270;29;20123;-70
2023/01/08 02:40:15;;;;;;;38.85;24.08;;;;;;;4.04;100.00;98699.53;4939770;29;20405;-72
2023/01/08 02:43:10;;;;;;;34.58;21.50;;;;;;;4.01;100.00;98694.47;4893147;29;20064;-72
2023/01/08 02:45:59;;;;;;;39.10;22.73;;;;;;;3.90;100.00;98697.53;4891858;29;20068;-73
2023/01/08 02:48:48;;;;;;;31.88;18.95;;;;;;;3.95;100.00;98700.75;4892555;29;20143;-72
2023/01/08 02:51:39;;;;;;;35.47;20.23;;;;;;;3.85;100.00;98695.13;4892899;29;20062;-71
2023/01/08 02:54:28;;;;;;;34.80;19.98;;;;;;;3.82;100.00;98690.91;4882160;29;20053;-73
2023/01/08 02:57:15;;;;;;;34.28;19.63;;;;;;;3.91;100.00;98687.09;4878978;29;20394;-74
2023/01/08 03:00:00;;;;;;;33.45;19.58;;;;;;;4.01;100.00;98686.69;4892819;29;20132;-72
2023/01/08 03:02:46;;;;;;;31.23;18.70;;;;;;;3.99;100.00;98685.91;4895650;29;20461;-72
2023/01/08 03:05:30;;;;;;;33.50;19.25;;;;;;;4.01;100.00;98697.06;4883016;29;20045;-72
2023/01/08 03:08:18;;;;;;;35.78;21.45;;;;;;;3.90;100.00;98680.22;4896148;29;20136;-73
2023/01/08 03:11:06;;;;;;;36.67;20.63;;;;;;;4.03;100.00;98672.75;4878350;29;20409;-69
2023/01/08 03:13:54;;;;;;;36.03;22.15;;;;;;;3.96;100.00;98666.16;4897127;29;20044;-72
2023/01/08 03:16:45;;;;;;;34.92;20.95;;;;;;;4.03;100.00;98661.56;4881024;29;20124;-71
2023/01/08 03:19:43;;;;;;;35.83;21.50;;;;;;;3.88;100.00;98669.09;4925332;29;20055;-71
2023/01/08 03:22:31;;;;;;;34.90;19.90;;;;;;;3.90;100.00;98667.25;4955062;29;20069;-72
2023/01/08 03:25:19;;;;;;;33.65;20.02;;;;;;;3.89;100.00;98670.75;4940982;29;20114;-72
2023/01/08 03:28:13;;;;;;;34.70;20.30;;;;;;;3.92;100.00;98664.59;4955549;29;20052;-70
2023/01/08 03:31:00;;;;;;;35.20;19.63;;;;;;;3.91;100.00;98662.91;4955137;29;20044;-72
2023/01/08 03:33:46;;;;;;;35.03;20.20;;;;;;;3.86;100.00;98652.75;4954939;29;20082;-73
2023/01/08 03:36:34;;;;;;;35.42;21.23;;;;;;;3.79;100.00;98654.75;4955125;29;20069;-71
2023/01/08 03:39:25;;;;;;;34.63;20.10;;;;;;;3.87;100.00;98654.41;4955152;29;20051;-70
2023/01/08 03:42:13;;;;;;;35.53;19.50;;;;;;;3.92;100.00;98655.06;4954616;29;20057;-72
2023/01/08 03:45:01;;;;;;;31.35;19.25;;;;;;;3.90;100.00;98654.28;4955101;29;20138;-72
2023/01/08 03:47:47;;;;;;;32.20;20.30;;;;;;;3.97;100.00;98651.41;4942518;29;20043;-69
2023/01/08 03:50:32;;;;;;;36.63;21.55;;;;;;;3.96;100.00;98647.16;4953258;29;20086;-70
2023/01/08 03:53:16;;;;;;;34.05;20.10;;;;;;;3.95;100.00;98648.91;4954513;29;20089;-74
2023/01/08 03:56:01;;;;;;;34.35;20.85;;;;;;;3.91;100.00;98649.94;4954867;28;20167;-70
2023/01/08 03:58:47;;;;;;;37.15;22.17;;;;;;;3.94;100.00;98652.41;4950992;29;20047;-72
2023/01/08 04:01:31;;;;;;;38.25;23.90;;;;;;;3.99;100.00;98642.69;4955003;29;20055;-72
2023/01/08 04:04:16;;;;;;;41.17;23.63;;;;;;;4.01;100.00;98648.66;4955071;28;20154;-73
2023/01/08 04:07:01;;;;;;;41.10;24.20;;;;;;;4.04;100.00;98648.53;4954558;29;20048;-72
2023/01/08 04:09:46;;;;;;;42.72;25.30;;;;;;;4.04;100.00;98645.94;4954482;29;20113;-72
2023/01/08 04:12:30;;;;;;;39.40;23.88;;;;;;;3.99;100.00;98652.22;4941934;28;20063;-72
2023/01/08 04:15:15;;;;;;;40.20;23.25;;;;;;;3.94;100.00;98634.25;4954231;29;20110;-71
2023/01/08 04:17:59;;;;;;;40.78;24.23;;;;;;;4.00;100.00;98638.34;4954566;29;20047;-71
2023/01/08 04:20:45;;;;;;;41.53;24.10;;;;;;;4.04;100.00;98637.31;4922974;29;20047;-72
2023/01/08 04:23:30;;;;;;;42.35;26.38;;;;;;;3.98;100.00;98635.84;4952680;29;20094;-72
2023/01/08 04:26:14;;;;;;;40.58;23.67;;;;;;;4.01;100.00;98630.50;4954422;29;20078;-73
2023/01/08 04:29:02;;;;;;;44.45;24.95;;;;;;;4.05;100.00;98623.41;4954372;29;20047;-73
2023/01/08 04:31:47;;;;;;;43.08;24.42;;;;;;;4.05;100.00;98623.41;4942102;29;20062;-73
2023/01/08 04:34:32;;;;;;;42.90;24.55;;;;;;;4.05;100.00;98618.22;4939450;29;20178;-73
2023/01/08 04:37:16;;;;;;;43.33;23.73;;;;;;;4.00;100.00;98613.25;4939807;29;20385;-74
2023/01/08 04:40:01;;;;;;;41.47;23.08;;;;;;;4.05;100.00;98613.03;4943677;29;20142;-71
2023/01/08 04:42:47;;;;;;;41.35;24.00;;;;;;;4.06;100.00;98612.16;4953526;29;20039;-71
2023/01/08 04:45:31;;;;;;;44.03;24.15;;;;;;;4.06;100.00;98627.72;4954077;29;20182;-71
2023/01/08 04:48:16;;;;;;;40.97;23.17;;;;;;;4.01;100.00;98625.31;4953787;29;20051;-71
2023/01/08 04:51:02;;;;;;;50.17;25.70;;;;;;;4.03;100.00;98618.31;4953435;28;20039;-72
2023/01/08 04:53:47;;;;;;;42.78;24.15;;;;;;;4.05;100.00;98613.03;4953041;29;20130;-70
2023/01/08 04:56:32;;;;;;;43.20;23.45;;;;;;;4.05;100.00;98606.13;4953054;29;20547;-72
2023/01/08 04:59:17;;;;;;;41.35;23.30;;;;;;;4.03;100.00;98609.69;4953497;29;20066;-73
2023/01/08 05:02:02;;;;;;;42.50;23.95;;;;;;;4.05;100.00;98597.50;4944642;29;20122;-73
2023/01/08 05:04:47;;;;;;;42.28;23.27;;;;;;;4.06;100.00;98604.38;4929487;29;20101;-70
2023/01/08 05:07:31;;;;;;;42.05;23.15;;;;;;;4.10;100.00;98602.50;4953266;29;20051;-72
2023/01/08 05:10:16;;;;;;;38.40;23.33;;;;;;;4.07;100.00;98599.13;4948714;29;20039;-73
2023/01/08 05:13:01;;;;;;;41.13;24.58;;;;;;;4.09;100.00;98596.47;4953446;29;20365;-71
2023/01/08 05:15:46;;;;;;;40.85;23.83;;;;;;;4.08;100.00;98602.53;4921893;29;20043;-72
2023/01/08 05:18:30;;;;;;;41.88;24.52;;;;;;;4.08;100.00;98592.16;4949937;29;20425;-73
2023/01/08 05:21:42;;;;;;;41.40;24.98;;;;;;;4.01;100.00;98598.53;4941261;29;20487;-72
2023/01/08 05:24:31;;;;;;;39.63;23.95;;;;;;;4.05;100.00;98589.72;4952512;28;20043;-69
2023/01/08 05:27:16;;;;;;;42.80;24.52;;;;;;;4.07;100.00;98593.94;4943482;29;20418;-70
2023/01/08 05:30:00;;;;;;;45.25;24.17;;;;;;;4.07;100.00;98596.53;4953381;29;20506;-72
2023/01/08 05:32:45;;;;;;;43.55;25.27;;;;;;;4.12;100.00;98601.50;4952763;29;20051;-72
2023/01/08 05:35:29;;;;;;;40.50;23.63;;;;;;;4.10;100.00;98598.13;4953610;29;20051;-71
2023/01/08 05:38:15;;;;;;;40.75;24.05;;;;;;;4.04;100.00;98598.41;4941387;29;20049;-73
2023/01/08 05:40:59;;;;;;;38.55;23.33;;;;;;;4.07;100.00;98593.94;4941645;29;20047;-73
2023/01/08 05:43:44;;;;;;;38.78;23.10;;;;;;;4.06;100.00;98596.59;4935592;29;20407;-70
2023/01/08 05:46:28;;;;;;;36.03;22.75;;;;;;;4.06;100.00;98592.22;4922426;29;20059;-73
2023/01/08 05:49:13;;;;;;;36.10;21.10;;;;;;;4.08;100.00;98586.97;4944898;29;20098;-73
2023/01/08 05:51:58;;;;;;;36.85;21.98;;;;;;;4.09;100.00;98586.09;4952409;28;20035;-73
2023/01/08 05:54:42;;;;;;;38.20;23.40;;;;;;;4.14;100.00;98581.53;4952917;28;20051;-69
2023/01/08 05:57:27;;;;;;;39.47;23.00;;;;;;;4.10;100.00;98579.16;4953043;29;20043;-73
2023/01/08 06:00:13;;;;;;;38.05;22.23;;;;;;;4.06;100.00;98573.25;4952371;29;20047;-72
2023/01/08 06:02:57;;;;;;;37.00;21.77;;;;;;;4.04;100.00;98582.84;4937977;29;20122;-73
2023/01/08 06:05:42;;;;;;;34.45;20.77;;;;;;;3.98;100.00;98567.56;4952685;29;20054;-73
2023/01/08 06:08:28;;;;;;;35.85;20.90;;;;;;;4.00;100.00;98573.53;4946084;29;20054;-73
2023/01/08 06:11:13;;;;;;;36.05;21.25;;;;;;;3.93;100.00;98573.78;4952567;29;20352;-75
2023/01/08 06:13:58;;;;;;;41.58;21.33;;;;;;;3.90;100.00;98573.94;4952734;29;20059;-75
2023/01/08 06:16:43;;;;;;;39.47;22.38;;;;;;;3.97;100.00;98569.31;4923395;29;20484;-73
2023/01/08 06:19:28;;;;;;;38.40;22.67;;;;;;;3.96;100.00;98569.38;4926974;29;20044;-68
2023/01/08 06:22:13;;;;;;;37.78;22.15;;;;;;;3.98;100.00;98558.06;4934123;29;20040;-73
2023/01/08 06:24:57;;;;;;;36.15;21.40;;;;;;;4.00;100.00;98564.00;4936281;29;20050;-74
2023/01/08 06:27:42;;;;;;;36.63;20.80;;;;;;;4.02;100.00;98561.34;4947751;29;20047;-74
2023/01/08 06:30:27;;;;;;;38.58;21.20;;;;;;;4.03;100.00;98561.25;4950963;29;20051;-69
2023/01/08 06:33:12;;;;;;;32.58;19.38;;;;;;;3.86;100.00;98563.75;4949698;29;20471;-72
2023/01/08 06:36:06;;;;;;;38.38;22.02;;;;;;;3.84;100.00;98557.81;4951285;28;20057;-74
2023/01/08 06:38:51;;;;;;;36.03;20.00;;;;;;;3.87;100.00;98560.28;4952061;29;20550;-70
2023/01/08 06:41:35;;;;;;;40.22;22.25;;;;;;;3.86;100.00;98556.84;4940655;29;20159;-72
2023/01/08 06:44:20;;;;;;;38.88;22.00;;;;;;;3.61;100.00;98559.69;4954395;29;20106;-74
2023/01/08 06:47:05;;;;;;;42.35;22.77;;;;;;;3.64;100.00;98557.78;4954246;29;20047;-74
2023/01/08 06:49:50;;;;;;;44.15;22.95;;;;;;;3.58;100.00;98550.28;4951647;29;20062;-74
2023/01/08 06:52:35;;;;;;;40.63;22.75;;;;;;;3.59;100.00;98551.13;4955339;29;20094;-71
2023/01/08 06:55:22;;;;;;;37.95;21.30;;;;;;;3.70;100.00;98541.94;4941006;29;20483;-72
2023/01/08 06:58:08;;;;;;;38.47;21.42;;;;;;;3.60;100.00;98545.03;4953273;29;20489;-75
2023/01/08 07:00:57;;;;;;;40.80;20.48;;;;;;;3.61;100.00;98539.78;4924898;29;20035;-75
2023/01/08 07:03:42;;;;;;;37.65;19.65;;;;;;;3.68;100.00;98536.00;4953766;29;20043;-74
2023/01/08 07:06:27;;;;;;;39.95;21.65;;;;;;;3.67;100.00;98520.53;4953808;29;20126;-73
2023/01/08 07:09:13;;;;;;;39.25;22.45;;;;;;;3.60;100.00;98524.28;4954854;29;20071;-73
2023/01/08 07:11:57;;;;;;;36.28;20.08;;;;;;;3.56;100.00;98534.78;4955618;29;20221;-67
2023/01/08 07:14:42;;;;;;;41.30;22.95;;;;;;;3.54;100.00;98523.66;4955491;29;20062;-68
2023/01/08 07:17:27;;;;;;;38.35;21.63;;;;;;;3.64;100.00;98533.63;4947382;29;20414;-67
2023/01/08 07:20:11;;;;;;;37.65;20.10;;;;;;;3.75;100.00;98531.41;4952948;29;20413;-69
2023/01/08 07:23:08;;;;;;;38.40;19.88;;;;;;;3.90;100.00;98526.44;4930103;28;20043;-66
2023/01/08 07:25:53;;;;;;;34.17;20.08;;;;;;;3.81;100.00;98519.91;4955467;29;20432;-68
2023/01/08 07:28:37;;;;;;;37.58;21.48;;;;;;;3.98;100.00;98521.75;4946495;29;20156;-68
2023/01/08 07:31:22;;;;;;;35.08;20.02;;;;;;;4.10;100.00;98509.16;4952317;29;20047;-68
2023/01/08 07:34:06;;;;;;;32.63;19.25;;;;;;;4.12;100.00;98505.56;4958794;29;20047;-71
2023/01/08 07:36:51;;;;;;;34.22;19.23;;;;;;;4.26;100.00;98509.28;4933579;29;20602;-69
2023/01/08 07:39:36;;;;;;;35.58;20.52;;;;;;;4.20;100.00;98502.63;4953926;29;20130;-70
2023/01/08 07:42:21;;;;;;;32.38;18.92;;;;;;;4.18;100.00;98509.63;4953124;29;20459;-73
2023/01/08 07:45:07;;;;;;;36.05;19.77;;;;;;;4.30;100.00;98503.88;4949682;29;20467;-69
2023/01/08 07:47:51;;;;;;;34.97;19.85;;;;;;;4.44;100.00;98499.78;4940005;29;20079;-69
2023/01/08 07:50:37;;;;;;;35.33;20.60;;;;;;;4.24;100.00;98498.97;4954526;28;20043;-68
2023/01/08 07:53:21;;;;;;;37.13;22.20;;;;;;;4.22;100.00;98500.78;4954800;29;20079;-70
2023/01/08 07:56:07;;;;;;;34.78;19.77;;;;;;;4.24;100.00;98493.78;4954492;29;20055;-71
2023/01/08 07:58:52;;;;;;;33.28;19.55;;;;;;;4.26;100.00;98489.34;4926002;29;20054;-69
2023/01/08 08:01:37;;;;;;;35.47;19.95;;;;;;;4.24;100.00;98485.16;4951523;29;20039;-71
2023/01/08 08:04:23;;;;;;;35.38;20.65;;;;;;;4.07;100.00;98490.22;4939486;29;20051;-51
2023/01/08 08:07:07;;;;;;;31.42;18.90;;;;;;;4.32;100.00;98480.47;4940412;29;20161;-69
2023/01/08 08:09:53;;;;;;;35.60;19.25;;;;;;;4.11;100.00;98475.38;4954392;28;20399;-69
2023/01/08 08:12:38;;;;;;;32.45;19.35;;;;;;;4.10;100.00;98481.44;4952091;29;20487;-68
2023/01/08 08:15:23;;;;;;;32.05;18.65;;;;;;;4.50;100.00;98476.16;4913000;29;20847;-70
2023/01/08 08:18:08;;;;;;;32.83;19.80;;;;;;;4.43;100.00;98482.53;4954584;29;20126;-68
2023/01/08 08:20:53;;;;;;;30.30;18.83;;;;;;;4.13;100.00;98481.31;4954027;29;20538;-70
2023/01/08 08:23:38;;;;;;;36.22;20.50;;;;;;;4.03;100.00;98490.44;4953701;29;20040;-69
2023/01/08 08:26:22;;;;;;;36.58;20.63;;;;;;;4.05;100.00;98481.66;4949561;29;20062;-69
2023/01/08 08:29:07;;;;;;;30.50;18.85;;;;;;;4.04;100.00;98473.97;4946407;29;20098;-70
2023/01/08 08:31:52;;;;;;;33.90;20.10;;;;;;;4.10;100.00;98483.22;4937622;29;20079;-70
2023/01/08 08:34:37;;;;;;;34.13;19.15;;;;;;;4.12;100.00;98478.78;4954015;29;20051;-68
2023/01/08 08:37:21;;;;;;;33.72;20.00;;;;;;;4.09;100.00;98472.00;4954453;29;20070;-69
2023/01/08 08:40:07;;;;;;;37.30;20.30;;;;;;;4.15;100.00;98465.69;4952435;29;20043;-67
2023/01/08 08:43:00;;;;;;;34.60;20.00;;;;;;;4.12;100.00;98469.25;4947148;29;20075;-69
2023/01/08 08:45:44;;;;;;;37.05;20.75;;;;;;;4.24;100.00;98473.03;4953306;29;20066;-70
2023/01/08 08:48:29;;;;;;;33.45;19.17;;;;;;;4.13;100.00;98465.75;4925822;29;20074;-69
2023/01/08 08:51:15;;;;;;;32.13;19.67;;;;;;;4.24;100.00;98460.06;4945735;28;20055;-69
2023/01/08 08:54:01;;;;;;;34.03;19.23;;;;;;;4.26;100.00;98470.38;4927295;29;20048;-69
2023/01/08 08:56:47;;;;;;;31.92;17.88;;;;;;;4.29;100.00;98463.28;4941119;29;20427;-68
2023/01/08 08:59:32;;;;;;;38.95;19.38;;;;;;;4.18;100.00;98457.75;4953410;28;20077;-67
2023/01/08 09:02:16;;;;;;;33.65;19.23;;;;;;;4.20;100.00;98445.56;4943201;29;20123;-69
2023/01/08 09:05:01;;;;;;;32.75;17.83;;;;;;;4.22;100.00;98448.94;4953641;29;20062;-70
2023/01/08 09:07:48;;;;;;;42.75;19.98;;;;;;;4.20;100.00;98440.38;4942390;29;20039;-70
2023/01/08 09:10:32;;;;;;;29.85;17.58;;;;;;;4.18;100.00;98434.41;4950152;29;20518;-70
2023/01/08 09:13:17;;;;;;;30.27;17.25;;;;;;;4.31;100.00;98427.72;4953169;29;20066;-68
2023/01/08 09:16:02;;;;;;;30.08;17.55;;;;;;;4.23;100.00;98427.25;4945623;29;20054;-69
2023/01/08 09:18:47;;;;;;;30.13;18.23;;;;;;;4.21;100.00;98426.47;4939220;29;20046;-70
2023/01/08 09:21:32;;;;;;;31.60;18.33;;;;;;;4.25;100.00;98420.25;4954212;29;20047;-71
2023/01/08 09:24:17;;;;;;;30.63;17.58;;;;;;;4.30;100.00;98420.03;4952916;29;20469;-70
2023/01/08 09:27:02;;;;;;;27.15;17.02;;;;;;;4.32;100.00;98420.81;4941271;29;20047;-69
2023/01/08 09:29:47;;;;;;;29.88;16.60;;;;;;;4.31;100.00;98422.53;4938216;29;20043;-71
2023/01/08 09:32:32;;;;;;;27.58;18.23;;;;;;;4.25;100.00;98415.06;4952962;29;20066;-68
2023/01/08 09:35:16;;;;;;;30.10;18.25;;;;;;;4.40;100.00;98410.91;4928891;29;20059;-68
2023/01/08 09:38:01;;;;;;;24.85;17.10;;;;;;;4.47;100.00;98405.41;4952458;29;20094;-68
2023/01/08 09:41:00;;;;;;;29.92;17.90;;;;;;;4.45;100.00;98402.88;4952404;29;20043;-68
2023/01/08 09:43:47;;;;;;;28.73;19.20;;;;;;;4.43;100.00;98407.31;4952676;29;20052;-67
2023/01/08 09:46:33;;;;;;;30.63;18.70;;;;;;;4.45;100.00;98405.47;4961056;28;20053;-68
2023/01/08 09:49:29;;;;;;;29.75;18.15;;;;;;;4.29;100.00;98397.63;4952381;29;20047;-69
2023/01/08 09:52:15;;;;;;;26.48;16.73;;;;;;;4.34;100.00;98394.78;4938545;29;20078;-69
2023/01/08 09:55:00;;;;;;;30.95;18.17;;;;;;;4.38;100.00;98379.00;4952628;29;20052;-68
2023/01/08 09:57:47;;;;;;;28.55;17.65;;;;;;;4.32;100.00;98372.34;4925563;29;20055;-68
2023/01/08 10:00:33;;;;;;;28.42;17.90;;;;;;;4.33;100.00;98375.78;4952803;29;20039;-69
2023/01/08 10:03:18;;;;;;;24.88;15.05;;;;;;;4.66;100.00;98372.44;4937647;29;20057;-70
2023/01/08 10:06:08;;;;;;;26.27;17.25;;;;;;;4.38;100.00;98358.25;4939579;29;20129;-71
2023/01/08 10:08:53;;;;;;;26.67;17.45;;;;;;;4.36;100.00;98347.09;4948170;29;20588;-71
2023/01/08 10:11:42;;;;;;;30.20;17.98;;;;;;;4.44;100.00;98346.72;4959331;28;20043;-66
2023/01/08 10:14:30;;;;;;;56.22;31.52;;;;;;;4.60;100.00;98333.84;4943430;29;20059;-68
2023/01/08 10:17:36;;;;;;;28.75;17.63;;;;;;;4.61;100.00;98330.31;4943387;29;20492;-70
2023/01/08 10:20:23;;;;;;;51.70;28.48;;;;;;;4.69;100.00;98327.31;4942067;29;20070;-69
2023/01/08 10:23:14;;;;;;;29.08;17.20;;;;;;;4.67;100.00;98335.19;4939891;29;20047;-70
2023/01/08 10:26:01;;;;;;;48.70;34.47;;;;;;;4.93;100.00;98329.53;4955161;29;20570;-67
2023/01/08 10:28:45;;;;;;;26.70;17.05;;;;;;;4.67;100.00;98330.00;4944534;29;20050;-71
2023/01/08 10:31:31;;;;;;;28.58;18.55;;;;;;;4.73;100.00;98322.81;4940521;29;20106;-64
2023/01/08 10:34:24;;;;;;;29.85;20.95;;;;;;;4.76;100.00;98320.06;4955429;29;20429;-71
2023/01/08 10:37:30;;;;;;;25.08;16.38;;;;;;;4.72;100.00;98314.19;4947052;29;20058;-70
2023/01/08 10:40:29;;;;;;;40.95;29.48;;;;;;;4.67;100.00;98300.59;4946049;29;20511;-69
2023/01/08 10:43:19;;;;;;;32.92;21.88;;;;;;;4.76;100.00;98297.53;4951885;29;20047;-68
2023/01/08 10:46:07;;;;;;;27.55;18.10;;;;;;;4.73;100.00;98286.47;4953857;29;20054;-71
2023/01/08 10:48:59;;;;;;;32.05;20.38;;;;;;;4.62;100.00;98271.47;4954313;29;20725;-70
2023/01/08 10:51:52;;;;;;;39.05;29.65;;;;;;;4.76;100.00;98262.97;4954516;29;20119;-71
2023/01/08 10:54:39;;;;;;;32.55;23.77;;;;;;;4.95;100.00;98257.63;4954929;29;20057;-70
2023/01/08 10:57:28;;;;;;;111.38;95.13;;;;;;;5.53;100.00;98250.16;4944440;28;20114;-64
2023/01/08 11:00:25;;;;;;;152.65;135.20;;;;;;;9.48;100.00;98242.72;4953524;29;20055;-64
2023/01/08 11:03:30;;;;;;;49.05;38.42;;;;;;;8.71;100.00;98234.16;4940507;29;20075;-73
2023/01/08 11:06:28;;;;;;;28.55;18.27;;;;;;;6.36;100.00;98245.50;4939455;29;20063;-75
2023/01/08 11:09:26;;;;;;;23.00;15.35;;;;;;;5.92;100.00;98240.16;4926236;29;20051;-70
2023/01/08 11:12:29;;;;;;;176.32;157.60;;;;;;;8.16;100.00;98225.69;4926197;29;20054;-65
2023/01/08 11:15:16;;;;;;;142.18;127.00;;;;;;;9.81;100.00;98223.84;4925843;29;20122;-71
2023/01/08 11:18:21;;;;;;;26.02;18.92;;;;;;;6.87;100.00;98231.16;4954135;29;20118;-71
2023/01/08 11:21:18;;;;;;;105.47;93.90;;;;;;;6.89;100.00;98226.72;4946466;28;20062;-69
2023/01/08 11:24:17;;;;;;;24.17;15.85;;;;;;;6.29;100.00;98244.19;4930326;29;20051;-73
2023/01/08 11:27:15;;;;;;;22.92;13.68;;;;;;;6.11;100.00;98256.50;4948457;29;20495;-70
2023/01/08 11:30:05;;;;;;;21.58;12.88;;;;;;;5.95;100.00;98272.13;4940123;29;20054;-72
2023/01/08 11:33:02;;;;;;;19.88;12.35;;;;;;;5.91;100.00;98279.25;4928468;29;20450;-77
2023/01/08 11:35:53;;;;;;;24.50;14.23;;;;;;;5.63;100.00;98291.25;4936815;29;20047;-68
2023/01/08 11:38:44;;;;;;;22.02;12.93;;;;;;;5.59;100.00;98292.31;4953137;28;20054;-68
2023/01/08 11:41:49;;;;;;;24.00;13.43;;;;;;;5.49;100.00;98285.03;4950102;28;20039;-69
2023/01/08 11:44:45;;;;;;;21.77;12.00;;;;;;;5.61;100.00;98273.13;4950808;28;20047;-68
2023/01/08 11:47:52;;;;;;;20.55;12.20;;;;;;;5.94;100.00;98279.09;4948596;28;20423;-68
2023/01/08 11:50:43;;;;;;;23.20;13.00;;;;;;;5.90;100.00;98260.25;4948038;28;20126;-68
2023/01/08 11:53:40;;;;;;;22.77;13.23;;;;;;;5.82;100.00;98253.78;4920768;29;20051;-69
2023/01/08 11:56:41;;;;;;;22.45;12.25;;;;;;;5.79;100.00;98247.03;4941130;29;20074;-69
2023/01/08 11:59:47;;;;;;;20.97;11.90;;;;;;;5.70;100.00;98243.16;4947624;28;20098;-69
2023/01/08 12:02:51;;;;;;;21.83;13.13;;;;;;;5.65;100.00;98235.63;4934735;28;20075;-69
2023/01/08 12:05:51;;;;;;;21.75;11.93;;;;;;;5.85;100.00;98235.41;4929311;28;20066;-71
2023/01/08 12:09:02;;;;;;;21.48;12.52;;;;;;;5.76;100.00;98231.59;4940874;28;20053;-72
2023/01/08 12:11:56;;;;;;;33.10;23.75;;;;;;;6.13;100.00;98237.31;4932517;28;20459;-77
2023/01/08 12:15:13;;;;;;;24.02;13.75;;;;;;;6.01;100.00;98241.41;4916410;28;20860;-71
2023/01/08 12:18:17;;;;;;;19.98;12.38;;;;;;;5.92;100.00;98224.56;4876243;29;20517;-74
2023/01/08 12:21:29;;;;;;;21.88;12.65;;;;;;;6.11;100.00;98238.28;4875982;29;20462;-70
2023/01/08 12:24:32;;;;;;;23.48;13.95;;;;;;;5.85;100.00;98220.66;4872931;29;20148;-71
2023/01/08 12:27:41;;;;;;;23.00;13.10;;;;;;;5.97;100.00;98220.88;4867113;29;20152;-69
2023/01/08 12:30:37;;;;;;;19.73;12.55;;;;;;;5.84;100.00;98211.19;4852763;29;20598;-70
2023/01/08 12:33:33;;;;;;;27.52;18.25;;;;;;;6.68;100.00;98200.22;4861403;29;20512;-67
2023/01/08 12:36:29;;;;;;;20.33;12.88;;;;;;;6.18;100.00;98213.63;4876143;29;20830;-73
2023/01/08 12:39:23;;;;;;;21.40;12.00;;;;;;;6.13;100.00;98205.25;4865057;29;20045;-70
2023/01/08 12:42:15;;;;;;;21.25;13.27;;;;;;;5.98;100.00;98205.19;4864913;29;20057;-71
2023/01/08 12:45:02;;;;;;;58.40;48.78;;;;;;;7.96;100.00;98189.56;4851851;29;20144;-61
2023/01/08 12:48:03;;;;;;;48.17;42.13;;;;;;;10.24;100.00;98190.97;4874043;29;20155;-65
2023/01/08 12:51:03;;;;;;;29.63;22.85;;;;;;;9.47;100.00;98186.13;4871158;29;20045;-67
2023/01/08 12:53:47;;;;;;;21.92;15.57;;;;;;;7.86;100.00;98191.94;4891984;29;20063;-69